Time;durP1;ratioP1;P1;durP2;ratioP2;P2;SDS_P1;SDS_P2;PMS_P1;PMS_P2;Temp;Humidity;BMP_temperature;BMP_pressure;BME280_temperature;BME280_humidity;BME280_pressure;Samples;Min_cycle;Max_cycle;Signal;HPM_P1;HPM_P2
2022/03/28 00:02:22;;;;;;;9.53;7.70;;;11.70;72.10;;;;;;5054433;28;20492;-48
2022/03/28 00:04:49;;;;;;;8.90;7.63;;;11.70;72.20;;;;;;5057747;28;20910;-48
2022/03/28 00:07:16;;;;;;;10.50;7.27;;;11.60;72.30;;;;;;5058257;28;20460;-48
2022/03/28 00:09:43;;;;;;;7.57;6.87;;;11.60;72.40;;;;;;5059442;28;20482;-48
2022/03/28 00:12:10;;;;;;;10.03;7.00;;;11.60;72.30;;;;;;5057552;28;20553;-48
2022/03/28 00:14:37;;;;;;;12.80;8.83;;;11.50;72.40;;;;;;5060875;28;20463;-48
2022/03/28 00:17:04;;;;;;;9.47;8.57;;;11.50;72.30;;;;;;5043933;28;20827;-48
2022/03/28 00:19:31;;;;;;;11.20;8.70;;;11.50;72.40;;;;;;5054931;28;20487;-48
2022/03/28 00:21:58;;;;;;;11.10;7.80;;;11.50;72.40;;;;;;5045808;28;20452;-48
2022/03/28 00:24:24;;;;;;;13.33;7.57;;;11.40;72.40;;;;;;5057404;28;20463;-47
2022/03/28 00:26:51;;;;;;;8.73;7.53;;;11.40;72.50;;;;;;5055772;28;20474;-47
2022/03/28 00:29:18;;;;;;;9.33;7.70;;;11.40;72.50;;;;;;5041909;28;20461;-47
2022/03/28 00:31:45;;;;;;;8.40;7.30;;;11.40;72.50;;;;;;5057748;28;20487;-48
2022/03/28 00:34:12;;;;;;;11.57;7.80;;;11.30;72.70;;;;;;5057156;28;20947;-48
2022/03/28 00:36:38;;;;;;;10.63;8.57;;;11.20;72.90;;;;;;5056933;28;20955;-48
2022/03/28 00:39:05;;;;;;;13.17;8.97;;;11.20;73.00;;;;;;5058450;28;20487;-48
2022/03/28 00:41:32;;;;;;;9.90;8.37;;;11.20;73.10;;;;;;5054970;28;20460;-48
2022/03/28 00:44:00;;;;;;;11.70;9.00;;;11.20;73.30;;;;;;5057527;28;20461;-49
2022/03/28 00:46:27;;;;;;;9.93;8.50;;;11.20;73.30;;;;;;5055169;28;20488;-48
2022/03/28 00:48:54;;;;;;;13.40;8.33;;;11.10;73.30;;;;;;5059665;28;20463;-48
2022/03/28 00:51:22;;;;;;;10.10;8.37;;;11.10;73.40;;;;;;5056355;28;20999;-48
2022/03/28 00:53:50;;;;;;;11.80;8.43;;;11.10;73.50;;;;;;5059744;28;20499;-48
2022/03/28 00:56:18;;;;;;;12.07;9.50;;;11.00;73.60;;;;;;5039206;28;20490;-48
2022/03/28 00:58:45;;;;;;;12.00;9.23;;;11.00;73.60;;;;;;5054654;28;20780;-48
2022/03/28 01:01:12;;;;;;;12.63;8.40;;;11.00;73.60;;;;;;5065125;28;20466;-48
2022/03/28 01:03:39;;;;;;;14.57;9.07;;;10.90;73.70;;;;;;5060298;28;20463;-48
2022/03/28 01:06:07;;;;;;;12.30;9.07;;;10.90;73.80;;;;;;5048469;28;20992;-48
2022/03/28 01:08:34;;;;;;;12.47;8.67;;;10.90;73.80;;;;;;5058725;28;20538;-48
2022/03/28 01:11:04;;;;;;;9.57;7.70;;;10.90;73.80;;;;;;5063725;28;20473;-48
2022/03/28 01:13:33;;;;;;;10.57;8.57;;;10.90;73.80;;;;;;5059878;28;20455;-48
2022/03/28 01:16:01;;;;;;;8.70;7.80;;;10.80;73.70;;;;;;5054218;28;20455;-48
2022/03/28 01:18:28;;;;;;;10.47;9.10;;;10.80;73.70;;;;;;5060251;28;20824;-48
2022/03/28 01:20:58;;;;;;;10.30;8.60;;;10.70;73.80;;;;;;5058577;28;21048;-48
2022/03/28 01:23:26;;;;;;;11.10;8.30;;;10.70;73.90;;;;;;5061236;28;20970;-48
2022/03/28 01:25:54;;;;;;;14.43;8.17;;;10.70;73.90;;;;;;5055210;28;21158;-48
2022/03/28 01:28:23;;;;;;;10.40;8.30;;;10.70;73.90;;;;;;5059955;28;20456;-48
2022/03/28 01:30:53;;;;;;;10.40;8.57;;;10.60;74.00;;;;;;5057356;28;20474;-48
2022/03/28 01:33:20;;;;;;;9.23;8.17;;;10.60;74.00;;;;;;5062859;28;20458;-48
2022/03/28 01:35:47;;;;;;;9.10;8.20;;;10.60;74.00;;;;;;5059454;28;20865;-48
2022/03/28 01:38:16;;;;;;;10.47;8.73;;;10.50;74.20;;;;;;5059180;28;20557;-48
2022/03/28 01:40:49;;;;;;;9.87;8.17;;;10.50;74.20;;;;;;5060873;28;20594;-48
2022/03/28 01:43:16;;;;;;;10.93;8.83;;;10.50;74.20;;;;;;5058126;28;20987;-48
2022/03/28 01:45:43;;;;;;;11.93;9.50;;;10.40;74.30;;;;;;5061429;28;20494;-48
2022/03/28 01:48:10;;;;;;;13.87;9.77;;;10.40;74.50;;;;;;5061094;28;20516;-48
2022/03/28 01:50:38;;;;;;;12.87;9.20;;;10.40;74.60;;;;;;5060300;28;20472;-48
2022/03/28 01:53:06;;;;;;;14.17;9.63;;;10.40;74.70;;;;;;5059254;28;20459;-48
2022/03/28 01:55:33;;;;;;;13.80;8.90;;;10.40;74.70;;;;;;5043672;28;20471;-48
2022/03/28 01:58:00;;;;;;;15.93;10.50;;;10.40;74.80;;;;;;5048552;28;20546;-49
2022/03/28 02:00:32;;;;;;;12.83;9.40;;;10.40;74.60;;;;;;5059350;28;23363;-48
2022/03/28 02:03:00;;;;;;;10.70;9.10;;;10.40;74.70;;;;;;5058150;28;20841;-49
2022/03/28 02:05:27;;;;;;;11.90;9.40;;;10.40;74.60;;;;;;5060835;28;21054;-48
2022/03/28 02:07:54;;;;;;;9.80;8.73;;;10.30;74.70;;;;;;5059614;28;20513;-48
2022/03/28 02:10:21;;;;;;;11.70;10.47;;;10.30;74.70;;;;;;5058772;28;20550;-48
2022/03/28 02:12:49;;;;;;;12.30;9.30;;;10.30;74.70;;;;;;5059498;28;20473;-48
2022/03/28 02:15:16;;;;;;;11.57;9.90;;;10.20;74.70;;;;;;5059376;28;20545;-45
2022/03/28 02:17:43;;;;;;;10.50;9.10;;;10.20;74.80;;;;;;5062403;28;20462;-45
2022/03/28 02:20:12;;;;;;;12.00;9.17;;;10.20;74.70;;;;;;5058795;28;20483;-45
2022/03/28 02:22:40;;;;;;;12.57;8.80;;;10.20;74.80;;;;;;5058080;28;20466;-45
2022/03/28 02:25:09;;;;;;;12.50;9.37;;;10.20;74.70;;;;;;5042555;28;20533;-45
2022/03/28 02:27:37;;;;;;;11.30;7.90;;;10.10;74.80;;;;;;5042542;28;20450;-45
2022/03/28 02:30:08;;;;;;;9.10;8.13;;;10.10;74.70;;;;;;5059743;28;20454;-45
2022/03/28 02:32:35;;;;;;;10.00;7.40;;;10.10;74.70;;;;;;5060739;28;20457;-45
2022/03/28 02:35:04;;;;;;;13.00;9.40;;;10.00;74.80;;;;;;5059200;28;20459;-45
2022/03/28 02:37:31;;;;;;;10.90;9.47;;;10.00;74.90;;;;;;5041348;28;20467;-45
2022/03/28 02:39:57;;;;;;;12.37;9.60;;;9.90;74.90;;;;;;5043226;28;20528;-45
2022/03/28 02:42:24;;;;;;;12.03;8.93;;;9.90;75.00;;;;;;5060261;28;20445;-44
2022/03/28 02:44:52;;;;;;;13.13;9.50;;;9.90;75.00;;;;;;5056134;28;20469;-45
2022/03/28 02:47:20;;;;;;;12.93;10.70;;;9.80;74.90;;;;;;5046395;28;20470;-44
2022/03/28 02:49:47;;;;;;;11.60;7.93;;;9.80;75.00;;;;;;5059740;28;20466;-45
2022/03/28 02:52:14;;;;;;;11.03;8.43;;;9.80;75.10;;;;;;5043991;28;20545;-45
2022/03/28 02:54:41;;;;;;;11.80;9.10;;;9.70;75.20;;;;;;5061052;28;20462;-45
2022/03/28 02:57:08;;;;;;;12.83;9.10;;;9.70;75.20;;;;;;5057651;28;20561;-47
2022/03/28 02:59:35;;;;;;;9.10;8.20;;;9.70;75.30;;;;;;5060948;28;21004;-46
2022/03/28 03:02:02;;;;;;;11.93;9.67;;;9.60;75.40;;;;;;5060707;28;20454;-46
2022/03/28 03:04:33;;;;;;;12.80;9.30;;;9.70;75.50;;;;;;5059762;28;20502;-46
2022/03/28 03:07:01;;;;;;;13.93;10.80;;;9.70;75.50;;;;;;5042301;28;20458;-46
2022/03/28 03:09:28;;;;;;;10.27;9.20;;;9.60;75.50;;;;;;5043323;28;20474;-46
2022/03/28 03:11:56;;;;;;;11.93;9.23;;;9.60;75.60;;;;;;5057331;28;20455;-46
2022/03/28 03:14:23;;;;;;;14.00;9.90;;;9.50;75.80;;;;;;5060266;28;20560;-46
2022/03/28 03:16:50;;;;;;;12.23;9.17;;;9.50;75.90;;;;;;5059515;28;20488;-46
2022/03/28 03:19:17;;;;;;;10.33;9.17;;;9.50;75.90;;;;;;5056696;28;20477;-46
2022/03/28 03:21:46;;;;;;;12.83;8.77;;;9.50;76.00;;;;;;5058016;28;20451;-46
2022/03/28 03:24:13;;;;;;;16.90;8.60;;;9.50;76.10;;;;;;5059166;28;20477;-46
2022/03/28 03:26:40;;;;;;;10.80;9.63;;;9.50;76.00;;;;;;5055799;28;20464;-46
2022/03/28 03:29:06;;;;;;;11.47;9.53;;;9.40;76.10;;;;;;5058429;28;20485;-46
2022/03/28 03:31:33;;;;;;;11.93;9.30;;;9.40;76.10;;;;;;5055901;28;20457;-45
2022/03/28 03:34:00;;;;;;;11.30;8.50;;;9.40;76.10;;;;;;5059018;28;20524;-45
2022/03/28 03:36:26;;;;;;;11.40;9.63;;;9.40;76.10;;;;;;5057595;28;20825;-45
2022/03/28 03:38:54;;;;;;;9.90;8.90;;;9.40;76.20;;;;;;5057927;28;20456;-46
2022/03/28 03:41:21;;;;;;;11.87;8.53;;;9.40;76.20;;;;;;5057854;28;20493;-45
2022/03/28 03:43:48;;;;;;;14.20;10.40;;;9.30;76.40;;;;;;5058518;28;20473;-45
2022/03/28 03:46:15;;;;;;;12.30;9.67;;;9.30;76.40;;;;;;5060199;28;20482;-45
2022/03/28 03:48:42;;;;;;;14.60;11.20;;;9.30;76.40;;;;;;5059450;28;20484;-45
2022/03/28 03:51:09;;;;;;;13.63;10.07;;;9.30;76.50;;;;;;5056957;28;20463;-45
2022/03/28 03:53:35;;;;;;;12.37;9.10;;;9.30;76.50;;;;;;5040053;28;20466;-46
2022/03/28 03:56:03;;;;;;;9.30;8.27;;;9.30;76.60;;;;;;5058940;28;20960;-46
2022/03/28 03:58:30;;;;;;;11.43;8.97;;;9.30;76.50;;;;;;5057541;28;21066;-46
2022/03/28 04:00:57;;;;;;;12.37;9.07;;;9.30;76.50;;;;;;5051945;28;20617;-46
2022/03/28 04:03:24;;;;;;;11.20;8.40;;;9.30;76.50;;;;;;5054648;28;20458;-46
2022/03/28 04:05:51;;;;;;;13.80;10.30;;;9.20;76.50;;;;;;5058576;28;20951;-45
2022/03/28 04:08:18;;;;;;;12.90;9.50;;;9.20;76.60;;;;;;5060366;28;20460;-46
2022/03/28 04:10:45;;;;;;;11.97;8.93;;;9.20;76.60;;;;;;5058772;28;20470;-46
2022/03/28 04:13:13;;;;;;;11.07;9.00;;;9.20;76.60;;;;;;5059053;28;20469;-46
2022/03/28 04:15:40;;;;;;;13.77;9.03;;;9.10;76.60;;;;;;5057393;28;20462;-46
2022/03/28 04:18:07;;;;;;;10.90;7.97;;;9.10;76.60;;;;;;5061017;28;20463;-46
2022/03/28 04:20:35;;;;;;;13.10;8.80;;;9.10;76.70;;;;;;5060121;28;20616;-46
2022/03/28 04:23:02;;;;;;;12.13;8.97;;;9.10;76.80;;;;;;5046500;28;20442;-46
2022/03/28 04:25:30;;;;;;;15.60;9.90;;;9.00;76.90;;;;;;5059080;28;20825;-46
2022/03/28 04:27:56;;;;;;;10.10;9.03;;;9.00;76.70;;;;;;5061532;28;20811;-46
2022/03/28 04:30:24;;;;;;;11.07;8.90;;;9.00;76.80;;;;;;5060678;28;20458;-46
2022/03/28 04:32:51;;;;;;;11.20;8.60;;;9.00;76.80;;;;;;5055553;28;20917;-46
2022/03/28 04:35:19;;;;;;;15.07;8.93;;;8.90;76.50;;;;;;5042688;28;20473;-46
2022/03/28 04:37:46;;;;;;;13.20;9.30;;;8.90;76.30;;;;;;5051084;28;20501;-46
2022/03/28 04:40:16;;;;;;;11.43;8.97;;;8.90;76.50;;;;;;5062540;28;20494;-46
2022/03/28 04:42:45;;;;;;;9.80;8.30;;;8.90;76.70;;;;;;5051216;28;20457;-46
2022/03/28 04:45:12;;;;;;;13.87;9.13;;;8.80;76.70;;;;;;5060201;28;20455;-46
2022/03/28 04:47:40;;;;;;;15.00;8.90;;;8.80;76.90;;;;;;5054839;28;20487;-45
2022/03/28 04:50:07;;;;;;;12.30;10.07;;;8.80;77.00;;;;;;5063041;28;20454;-47
2022/03/28 04:52:34;;;;;;;11.50;9.27;;;8.80;76.90;;;;;;5058801;28;20469;-46
2022/03/28 04:55:03;;;;;;;10.37;8.90;;;8.70;76.90;;;;;;5063100;28;20545;-46
2022/03/28 04:57:30;;;;;;;13.53;9.80;;;8.70;77.10;;;;;;5062300;28;20478;-45
2022/03/28 04:59:57;;;;;;;15.13;9.30;;;8.70;77.20;;;;;;5053500;28;20484;-46
2022/03/28 05:02:24;;;;;;;12.20;9.20;;;8.70;77.20;;;;;;5062351;28;20454;-46
2022/03/28 05:04:51;;;;;;;10.47;8.47;;;8.70;77.30;;;;;;5050519;28;20503;-47
2022/03/28 05:07:25;;;;;;;12.30;9.50;;;8.60;77.30;;;;;;5042234;28;20462;-46
2022/03/28 05:09:53;;;;;;;12.80;8.57;;;8.60;77.40;;;;;;5061934;28;20453;-46
2022/03/28 05:12:20;;;;;;;13.23;9.97;;;8.60;77.40;;;;;;5056604;28;20476;-46
2022/03/28 05:14:48;;;;;;;14.30;9.90;;;8.60;77.50;;;;;;5061427;28;20461;-46
2022/03/28 05:17:19;;;;;;;12.97;9.20;;;8.60;77.60;;;;;;5055856;28;20454;-46
2022/03/28 05:19:46;;;;;;;13.73;9.67;;;8.50;77.60;;;;;;5062405;28;20488;-45
2022/03/28 05:22:13;;;;;;;10.70;8.60;;;8.60;77.70;;;;;;5057492;28;20923;-46
2022/03/28 05:24:40;;;;;;;15.57;9.00;;;8.60;77.70;;;;;;5057641;28;20987;-46
2022/03/28 05:27:06;;;;;;;12.70;9.30;;;8.60;77.80;;;;;;5056945;28;20456;-46
2022/03/28 05:29:33;;;;;;;12.53;9.10;;;8.60;77.70;;;;;;5064364;28;20586;-46
2022/03/28 05:32:01;;;;;;;15.27;9.87;;;8.60;77.80;;;;;;5062328;28;20998;-46
2022/03/28 05:34:30;;;;;;;12.37;8.83;;;8.60;77.80;;;;;;5061093;28;20548;-46
2022/03/28 05:37:03;;;;;;;15.10;9.63;;;8.50;77.80;;;;;;5061361;28;20960;-46
2022/03/28 05:39:33;;;;;;;12.00;9.27;;;8.50;78.00;;;;;;5059218;28;20495;-46
2022/03/28 05:42:03;;;;;;;13.27;9.37;;;8.50;77.90;;;;;;5059855;28;20486;-45
2022/03/28 05:44:30;;;;;;;11.70;9.57;;;8.50;78.00;;;;;;5044567;28;20459;-46
2022/03/28 05:46:57;;;;;;;11.57;8.63;;;8.50;78.00;;;;;;5061862;28;20466;-46
2022/03/28 05:49:24;;;;;;;12.83;9.60;;;8.50;78.10;;;;;;5057363;28;20463;-46
2022/03/28 05:51:51;;;;;;;20.63;9.90;;;8.50;78.20;;;;;;5059469;28;20553;-45
2022/03/28 05:54:19;;;;;;;26.20;10.70;;;8.50;78.20;;;;;;5061368;28;20466;-46
2022/03/28 05:56:48;;;;;;;15.90;10.90;;;8.50;78.30;;;;;;5042252;28;20458;-46
2022/03/28 05:59:15;;;;;;;16.03;9.83;;;8.50;78.30;;;;;;5059208;28;20562;-46
2022/03/28 06:01:41;;;;;;;18.00;10.70;;;8.50;78.30;;;;;;5054650;28;20492;-46
2022/03/28 06:04:09;;;;;;;14.37;11.50;;;8.50;78.30;;;;;;5061617;28;20450;-46
2022/03/28 06:06:36;;;;;;;16.00;10.37;;;8.60;78.40;;;;;;5055640;28;20449;-46
2022/03/28 06:09:02;;;;;;;13.07;9.63;;;8.60;78.40;;;;;;5041252;28;20453;-46
2022/03/28 06:11:29;;;;;;;14.97;10.57;;;8.60;78.40;;;;;;5059828;28;20482;-46
2022/03/28 06:14:01;;;;;;;15.20;9.50;;;8.60;78.50;;;;;;5060682;28;20460;-46
2022/03/28 06:16:27;;;;;;;12.20;9.53;;;8.70;78.50;;;;;;5060503;28;20583;-46
2022/03/28 06:18:54;;;;;;;13.10;9.83;;;8.70;78.70;;;;;;5063721;28;20515;-46
2022/03/28 06:21:22;;;;;;;16.20;10.33;;;8.70;78.80;;;;;;5059771;28;20861;-46
2022/03/28 06:23:49;;;;;;;14.80;10.60;;;8.80;78.80;;;;;;5036775;28;20489;-46
2022/03/28 06:26:17;;;;;;;14.77;11.13;;;8.80;78.90;;;;;;5058108;28;20458;-46
2022/03/28 06:28:46;;;;;;;18.40;11.70;;;8.90;79.00;;;;;;5061674;28;20464;-46
2022/03/28 06:31:13;;;;;;;15.40;11.90;;;8.90;79.00;;;;;;5041441;28;20459;-46
2022/03/28 06:33:41;;;;;;;17.97;11.93;;;9.00;79.10;;;;;;5059714;28;20877;-46
2022/03/28 06:36:08;;;;;;;16.53;11.80;;;9.00;79.20;;;;;;5061259;28;20944;-46
2022/03/28 06:38:36;;;;;;;12.67;10.67;;;9.10;79.20;;;;;;5057560;28;20488;-46
2022/03/28 06:41:04;;;;;;;21.67;13.30;;;9.20;79.30;;;;;;5060648;28;20881;-46
2022/03/28 06:43:30;;;;;;;18.93;12.50;;;9.30;79.30;;;;;;5043796;28;20471;-46
2022/03/28 06:45:58;;;;;;;19.43;11.93;;;9.30;79.30;;;;;;5060069;28;21069;-46
2022/03/28 06:48:25;;;;;;;16.70;11.80;;;9.30;79.30;;;;;;5059044;28;20451;-46
2022/03/28 06:51:00;;;;;;;20.43;11.67;;;9.40;79.30;;;;;;5042875;28;20536;-46
2022/03/28 06:53:27;;;;;;;21.83;12.90;;;9.50;79.30;;;;;;5054350;28;20462;-46
2022/03/28 06:55:53;;;;;;;16.13;13.00;;;9.50;79.40;;;;;;5058821;28;20545;-46
2022/03/28 06:58:20;;;;;;;17.10;11.87;;;9.60;79.40;;;;;;5058969;28;20960;-46
2022/03/28 07:00:47;;;;;;;15.37;12.57;;;9.70;79.40;;;;;;5057790;28;20889;-46
2022/03/28 07:03:14;;;;;;;17.73;12.80;;;9.80;79.30;;;;;;5056357;28;20955;-46
2022/03/28 07:05:44;;;;;;;16.23;11.97;;;9.80;79.30;;;;;;5060658;28;20462;-46
2022/03/28 07:08:12;;;;;;;17.87;12.43;;;9.90;79.40;;;;;;5058427;28;20589;-46
2022/03/28 07:10:39;;;;;;;16.03;12.50;;;10.00;79.40;;;;;;5054921;28;20915;-46
2022/03/28 07:13:06;;;;;;;19.53;13.60;;;10.20;79.20;;;;;;5053469;28;20473;-46
2022/03/28 07:15:33;;;;;;;17.80;13.10;;;10.20;79.10;;;;;;5055377;28;20469;-46
2022/03/28 07:18:03;;;;;;;20.90;12.63;;;10.30;79.30;;;;;;5057623;28;20474;-46
2022/03/28 07:20:31;;;;;;;16.37;12.77;;;10.30;79.20;;;;;;5045352;28;20487;-46
2022/03/28 07:22:59;;;;;;;15.90;11.53;;;10.40;79.10;;;;;;5057084;28;20463;-47
2022/03/28 07:25:28;;;;;;;18.23;12.73;;;10.60;78.90;;;;;;5044875;28;20472;-46
2022/03/28 07:27:55;;;;;;;18.40;14.07;;;10.70;78.60;;;;;;5045721;28;20442;-46
2022/03/28 07:30:23;;;;;;;18.70;12.53;;;10.80;78.30;;;;;;5057597;28;20521;-46
2022/03/28 07:32:51;;;;;;;17.73;11.90;;;10.90;77.80;;;;;;5060982;28;20467;-47
2022/03/28 07:35:19;;;;;;;21.00;13.23;;;11.00;77.70;;;;;;5059344;28;20454;-46
2022/03/28 07:37:46;;;;;;;18.63;13.23;;;11.10;77.70;;;;;;5056153;28;20465;-46
2022/03/28 07:40:15;;;;;;;16.23;12.60;;;11.20;77.90;;;;;;5054964;28;20464;-46
2022/03/28 07:42:42;;;;;;;14.77;13.17;;;11.40;77.70;;;;;;5055231;28;20513;-46
2022/03/28 07:45:10;;;;;;;19.37;13.13;;;11.50;77.30;;;;;;5026236;28;20467;-46
2022/03/28 07:47:37;;;;;;;16.53;12.93;;;11.70;77.30;;;;;;5055308;28;20483;-46
2022/03/28 07:50:05;;;;;;;16.20;12.13;;;11.90;76.70;;;;;;5057517;28;20925;-46
2022/03/28 07:52:32;;;;;;;16.30;13.07;;;12.10;76.40;;;;;;5059065;28;20542;-46
2022/03/28 07:55:00;;;;;;;19.10;12.60;;;12.30;76.20;;;;;;5045449;28;20468;-46
2022/03/28 07:57:27;;;;;;;18.70;13.00;;;12.50;75.50;;;;;;5054125;28;20494;-46
2022/03/28 07:59:54;;;;;;;13.60;11.27;;;12.70;74.90;;;;;;5041116;28;20888;-46
2022/03/28 08:02:41;;;;;;;15.40;12.60;;;12.90;74.50;;;;;;5057895;28;20467;-46
2022/03/28 08:05:09;;;;;;;14.10;11.70;;;13.20;73.80;;;;;;5055905;28;20957;-46
2022/03/28 08:07:36;;;;;;;15.10;11.90;;;13.50;72.00;;;;;;5061569;28;20469;-46
2022/03/28 08:10:05;;;;;;;13.53;10.83;;;13.70;71.90;;;;;;5059817;28;20506;-46
2022/03/28 08:12:33;;;;;;;11.40;10.03;;;13.90;71.70;;;;;;5063495;28;20459;-46
2022/03/28 08:15:00;;;;;;;13.50;12.00;;;14.10;71.40;;;;;;5051768;28;20468;-46
2022/03/28 08:17:26;;;;;;;12.93;11.30;;;14.40;70.60;;;;;;5061581;28;20467;-47
2022/03/28 08:19:54;;;;;;;14.00;11.00;;;14.60;70.00;;;;;;5043931;28;20507;-47
2022/03/28 08:22:21;;;;;;;14.57;10.60;;;14.90;68.90;;;;;;5062721;28;20497;-47
2022/03/28 08:24:47;;;;;;;12.20;10.90;;;15.10;67.80;;;;;;5045808;28;20527;-47
2022/03/28 08:27:15;;;;;;;13.07;11.40;;;15.30;67.00;;;;;;5060229;28;20524;-47
2022/03/28 08:29:42;;;;;;;14.13;11.30;;;15.50;66.90;;;;;;5061274;28;20464;-47
2022/03/28 08:32:09;;;;;;;13.77;11.60;;;15.70;66.40;;;;;;5062857;28;20457;-47
2022/03/28 08:34:39;;;;;;;12.80;11.33;;;15.90;65.70;;;;;;5063965;28;20486;-47
2022/03/28 08:37:10;;;;;;;12.20;10.90;;;16.20;64.50;;;;;;5060855;28;20496;-47
2022/03/28 08:39:37;;;;;;;12.77;10.80;;;16.40;62.50;;;;;;5043522;28;20466;-48
2022/03/28 08:42:03;;;;;;;12.13;10.30;;;16.70;62.10;;;;;;5061731;28;21021;-48
2022/03/28 08:44:30;;;;;;;11.80;10.40;;;16.80;61.90;;;;;;5058697;28;20462;-47
2022/03/28 08:46:59;;;;;;;15.20;12.17;;;17.00;61.70;;;;;;5056577;28;20479;-48
2022/03/28 08:49:25;;;;;;;11.70;10.27;;;17.20;61.50;;;;;;5060897;28;20494;-47
2022/03/28 08:51:52;;;;;;;15.87;12.17;;;17.30;61.20;;;;;;5060096;28;20456;-48
2022/03/28 08:54:19;;;;;;;15.40;12.20;;;17.60;60.20;;;;;;5062182;28;20537;-47
2022/03/28 08:56:47;;;;;;;15.20;12.67;;;17.70;59.70;;;;;;5061096;28;20890;-47
2022/03/28 08:59:14;;;;;;;15.63;12.40;;;17.90;59.60;;;;;;5056299;28;20465;-48
2022/03/28 09:01:44;;;;;;;15.60;12.20;;;18.00;59.60;;;;;;5058314;28;20493;-47
2022/03/28 09:04:11;;;;;;;12.93;11.03;;;18.10;59.40;;;;;;5060860;28;20512;-47
2022/03/28 09:06:42;;;;;;;12.90;11.50;;;18.20;58.10;;;;;;5035978;28;20736;-47
2022/03/28 09:09:27;;;;;;;13.43;12.03;;;18.40;58.20;;;;;;5046626;28;20452;-47
2022/03/28 09:11:56;;;;;;;14.97;12.73;;;18.60;58.10;;;;;;5060824;28;20483;-47
2022/03/28 09:14:27;;;;;;;15.70;12.30;;;18.80;57.90;;;;;;5058717;28;20581;-47
2022/03/28 09:17:06;;;;;;;14.37;11.40;;;19.00;57.20;;;;;;5059658;28;20463;-47
2022/03/28 09:19:53;;;;;;;13.70;12.20;;;19.20;56.90;;;;;;5062102;28;20536;-47
2022/03/28 09:22:25;;;;;;;15.23;12.50;;;19.30;56.70;;;;;;5064045;28;20492;-46
2022/03/28 09:24:55;;;;;;;13.30;11.40;;;19.50;55.50;;;;;;5059914;28;20566;-46
2022/03/28 09:27:27;;;;;;;16.10;12.97;;;19.60;55.10;;;;;;5049966;28;20552;-46
2022/03/28 09:30:12;;;;;;;16.50;12.57;;;19.70;55.20;;;;;;5062306;28;20454;-46
2022/03/28 09:32:41;;;;;;;14.30;11.70;;;19.80;54.80;;;;;;5059756;28;20465;-46
2022/03/28 09:35:26;;;;;;;17.27;12.57;;;20.00;54.10;;;;;;5060899;28;20462;-47
2022/03/28 09:38:02;;;;;;;15.40;12.70;;;20.10;53.80;;;;;;5060021;28;20486;-47
2022/03/28 09:40:35;;;;;;;18.40;12.53;;;20.20;54.10;;;;;;5061143;28;20477;-46
2022/03/28 09:43:15;;;;;;;13.77;11.80;;;20.40;53.30;;;;;;5057930;28;20499;-46
2022/03/28 09:45:53;;;;;;;15.30;13.23;;;20.60;53.00;;;;;;5061846;28;20583;-47
2022/03/28 09:48:22;;;;;;;15.77;12.83;;;20.80;51.90;;;;;;5059758;28;20462;-47
2022/03/28 09:50:57;;;;;;;14.60;12.97;;;20.90;52.20;;;;;;5051526;28;20878;-47
2022/03/28 09:53:31;;;;;;;16.40;14.30;;;21.00;51.70;;;;;;5060591;28;20512;-47
2022/03/28 09:56:09;;;;;;;18.17;14.67;;;21.10;51.80;;;;;;5057912;28;21978;-46
2022/03/28 09:58:42;;;;;;;16.40;13.67;;;21.20;51.10;;;;;;5056371;28;20869;-47
2022/03/28 10:01:35;;;;;;;17.43;13.60;;;21.30;51.40;;;;;;5060194;28;20475;-47
2022/03/28 10:04:05;;;;;;;19.17;13.83;;;21.30;51.60;;;;;;5056167;28;20467;-47
2022/03/28 10:06:33;;;;;;;16.27;14.00;;;21.40;51.90;;;;;;5041615;28;20497;-47
2022/03/28 10:09:00;;;;;;;18.60;13.17;;;21.50;51.90;;;;;;5055479;28;20895;-46
2022/03/28 10:11:28;;;;;;;16.40;13.67;;;21.70;51.20;;;;;;5055806;28;20566;-47
2022/03/28 10:13:56;;;;;;;15.10;13.03;;;21.80;51.60;;;;;;5053520;28;20825;-47
2022/03/28 10:16:27;;;;;;;16.37;13.00;;;22.00;51.90;;;;;;5060123;28;20458;-47
2022/03/28 10:18:54;;;;;;;15.37;13.03;;;22.30;51.00;;;;;;5060465;28;20462;-47
2022/03/28 10:21:33;;;;;;;15.00;12.20;;;22.60;49.60;;;;;;5065249;28;20490;-47
2022/03/28 10:24:22;;;;;;;13.07;11.53;;;23.00;48.90;;;;;;5063376;28;20500;-48
2022/03/28 10:26:55;;;;;;;14.83;12.17;;;23.30;47.50;;;;;;5057722;28;20452;-47
2022/03/28 10:29:22;;;;;;;14.13;11.63;;;23.50;47.40;;;;;;5058521;28;20462;-48
2022/03/28 10:31:55;;;;;;;16.50;11.20;;;23.80;47.10;;;;;;5046463;28;20862;-47
2022/03/28 10:34:48;;;;;;;13.87;11.73;;;24.00;46.20;;;;;;5057238;28;20472;-47
2022/03/28 10:37:29;;;;;;;14.30;12.10;;;24.30;45.60;;;;;;5057096;28;20498;-49
2022/03/28 10:40:25;;;;;;;16.50;11.10;;;24.30;45.20;;;;;;5059846;28;21047;-49
2022/03/28 10:43:04;;;;;;;12.47;10.80;;;24.50;44.70;;;;;;5032557;28;20863;-48
2022/03/28 10:45:49;;;;;;;12.30;10.63;;;24.80;44.80;;;;;;5060023;28;20461;-47
2022/03/28 10:48:32;;;;;;;12.83;10.10;;;25.10;44.30;;;;;;5039580;28;21064;-48
2022/03/28 10:51:14;;;;;;;11.03;9.83;;;25.30;43.40;;;;;;5059883;28;20465;-48
2022/03/28 10:53:42;;;;;;;11.67;9.73;;;25.40;42.80;;;;;;5053478;28;20465;-48
2022/03/28 10:56:12;;;;;;;11.17;9.77;;;25.50;43.10;;;;;;5056196;28;20547;-48
2022/03/28 10:58:42;;;;;;;13.73;9.73;;;25.70;41.20;;;;;;5041195;28;20829;-48
2022/03/28 11:01:11;;;;;;;11.10;9.30;;;25.80;41.10;;;;;;5061994;28;20838;-48
2022/03/28 11:04:02;;;;;;;12.33;10.37;;;25.80;40.90;;;;;;5050792;28;20522;-48
2022/03/28 11:07:00;;;;;;;11.13;9.20;;;25.60;41.10;;;;;;5055792;28;20462;-47
2022/03/28 11:09:50;;;;;;;11.20;9.50;;;25.70;41.30;;;;;;5059969;28;20832;-47
2022/03/28 11:12:34;;;;;;;10.20;8.67;;;26.00;40.50;;;;;;5041921;28;20963;-48
2022/03/28 11:15:19;;;;;;;9.37;8.33;;;26.20;39.60;;;;;;5060260;28;20507;-48
2022/03/28 11:17:58;;;;;;;9.43;7.57;;;26.30;37.70;;;;;;5039404;28;20561;-47
2022/03/28 11:20:27;;;;;;;11.73;7.80;;;26.20;37.30;;;;;;5060378;28;20461;-48
2022/03/28 11:22:55;;;;;;;9.93;6.87;;;26.20;35.90;;;;;;5058010;28;20606;-47
2022/03/28 11:25:42;;;;;;;10.27;8.00;;;26.10;36.20;;;;;;5059117;28;20533;-48
2022/03/28 11:28:14;;;;;;;9.93;8.07;;;26.00;36.90;;;;;;5056068;28;20590;-48
2022/03/28 11:30:59;;;;;;;11.57;8.97;;;25.90;37.30;;;;;;5059271;28;20453;-48
2022/03/28 11:33:36;;;;;;;12.00;8.57;;;25.90;38.00;;;;;;5040482;28;20995;-48
2022/03/28 11:36:14;;;;;;;9.00;7.70;;;25.80;36.20;;;;;;5057546;28;20554;-48
2022/03/28 11:38:42;;;;;;;10.97;7.67;;;25.70;36.90;;;;;;5054888;28;20498;-48
2022/03/28 11:41:12;;;;;;;8.80;7.90;;;25.60;36.70;;;;;;5059796;28;20466;-47
2022/03/28 11:43:45;;;;;;;8.83;7.60;;;25.60;37.10;;;;;;5056704;28;20991;-48
2022/03/28 11:46:19;;;;;;;8.93;7.27;;;25.40;36.60;;;;;;5053141;28;20504;-48
2022/03/28 11:49:03;;;;;;;7.37;6.63;;;25.30;36.90;;;;;;5058677;28;20492;-47
2022/03/28 11:51:32;;;;;;;10.27;7.23;;;25.10;36.50;;;;;;5057241;28;20468;-47
2022/03/28 11:54:13;;;;;;;11.87;7.43;;;24.90;36.00;;;;;;5060141;28;20461;-48
2022/03/28 11:59:30;;;;;;;8.70;7.60;;;24.60;35.90;;;;;;5059311;28;20464;-47
2022/03/28 12:01:57;;;;;;;8.73;6.57;;;24.60;36.60;;;;;;5058008;28;20489;-48
2022/03/28 12:04:23;;;;;;;8.83;6.77;;;24.50;36.60;;;;;;5059582;28;20559;-48
2022/03/28 12:06:56;;;;;;;10.70;8.13;;;24.40;37.40;;;;;;5057243;28;20526;-48
2022/03/28 12:09:23;;;;;;;9.43;6.70;;;24.30;37.20;;;;;;5054606;28;20453;-48
2022/03/28 12:11:55;;;;;;;10.53;7.50;;;24.10;37.50;;;;;;5053763;28;20465;-48
2022/03/28 12:14:22;;;;;;;12.50;7.07;;;24.00;37.80;;;;;;5057794;28;20819;-48
2022/03/28 12:16:51;;;;;;;9.77;7.67;;;23.80;37.80;;;;;;5057394;28;20944;-48
2022/03/28 12:19:25;;;;;;;8.93;6.77;;;23.70;38.20;;;;;;5056246;28;20546;-48
2022/03/28 12:21:54;;;;;;;8.73;7.00;;;23.70;38.50;;;;;;5058776;28;21080;-48
2022/03/28 12:24:23;;;;;;;9.17;7.30;;;23.70;38.30;;;;;;5058969;28;21009;-48
2022/03/28 12:26:53;;;;;;;9.40;6.90;;;23.70;38.10;;;;;;5057694;28;20461;-48
2022/03/28 12:29:20;;;;;;;8.87;7.23;;;23.70;39.30;;;;;;5044914;28;20970;-48
2022/03/28 12:31:49;;;;;;;9.60;6.77;;;23.70;38.80;;;;;;5059054;28;20485;-48
2022/03/28 12:34:21;;;;;;;10.40;6.50;;;23.70;39.00;;;;;;5051065;28;20508;-48
2022/03/28 12:36:47;;;;;;;10.80;7.07;;;23.80;37.40;;;;;;5044105;28;20625;-47
2022/03/28 12:39:14;;;;;;;9.20;7.37;;;23.70;38.10;;;;;;5061260;28;21114;-46
2022/03/28 12:41:46;;;;;;;9.30;7.67;;;23.70;39.20;;;;;;5058094;28;20477;-48
2022/03/28 12:44:15;;;;;;;15.57;9.90;;;23.80;38.10;;;;;;5036709;28;20950;-47
2022/03/28 12:46:44;;;;;;;7.93;7.13;;;23.70;38.50;;;;;;5058533;28;20991;-47
2022/03/28 12:49:16;;;;;;;9.30;6.63;;;23.70;38.30;;;;;;5042174;28;21289;-48
2022/03/28 12:51:44;;;;;;;9.87;7.93;;;23.70;38.70;;;;;;5060652;28;20465;-48
2022/03/28 12:54:11;;;;;;;10.67;7.30;;;23.80;37.40;;;;;;5061177;28;20574;-47